sensor_id;sensor_type;location;lat;lon;timestamp;temperature;humidity
64855;DHT22;51321;50.428;8.378;2023-01-28T00:00:51;2.80;99.90
64855;DHT22;51321;50.428;8.378;2023-01-28T00:03:32;2.80;99.90
64855;DHT22;51321;50.428;8.378;2023-01-28T00:06:15;2.80;99.90
64855;DHT22;51321;50.428;8.378;2023-01-28T00:08:57;2.80;99.90
64855;DHT22;51321;50.428;8.378;2023-01-28T00:11:37;2.70;99.90
64855;DHT22;51321;50.428;8.378;2023-01-28T00:14:18;2.70;99.90
64855;DHT22;51321;50.428;8.378;2023-01-28T00:16:59;2.70;99.90
64855;DHT22;51321;50.428;8.378;2023-01-28T00:19:40;2.70;99.90
64855;DHT22;51321;50.428;8.378;2023-01-28T00:22:22;2.60;99.90
64855;DHT22;51321;50.428;8.378;2023-01-28T00:25:03;2.60;99.90
64855;DHT22;51321;50.428;8.378;2023-01-28T00:27:45;2.60;99.90
64855;DHT22;51321;50.428;8.378;2023-01-28T00:30:29;2.60;99.90
64855;DHT22;51321;50.428;8.378;2023-01-28T00:33:09;2.60;99.90
64855;DHT22;51321;50.428;8.378;2023-01-28T00:35:57;2.60;99.90
64855;DHT22;51321;50.428;8.378;2023-01-28T00:38:41;2.70;99.90
64855;DHT22;51321;50.428;8.378;2023-01-28T00:41:24;2.70;99.90
64855;DHT22;51321;50.428;8.378;2023-01-28T00:44:07;2.70;99.90
64855;DHT22;51321;50.428;8.378;2023-01-28T00:46:50;2.70;99.90
64855;DHT22;51321;50.428;8.378;2023-01-28T00:49:34;2.80;99.90
64855;DHT22;51321;50.428;8.378;2023-01-28T00:52:15;2.80;99.90
64855;DHT22;51321;50.428;8.378;2023-01-28T00:54:57;2.80;99.90
64855;DHT22;51321;50.428;8.378;2023-01-28T00:57:38;2.80;99.90
64855;DHT22;51321;50.428;8.378;2023-01-28T01:00:20;2.80;99.90
64855;DHT22;51321;50.428;8.378;2023-01-28T01:03:05;2.80;99.90
64855;DHT22;51321;50.428;8.378;2023-01-28T01:05:46;2.90;99.90
64855;DHT22;51321;50.428;8.378;2023-01-28T01:08:26;2.90;99.90
64855;DHT22;51321;50.428;8.378;2023-01-28T01:11:15;2.90;99.90
64855;DHT22;51321;50.428;8.378;2023-01-28T01:13:58;2.90;99.90
64855;DHT22;51321;50.428;8.378;2023-01-28T01:16:38;2.90;99.90
64855;DHT22;51321;50.428;8.378;2023-01-28T01:19:20;2.90;99.90
64855;DHT22;51321;50.428;8.378;2023-01-28T01:22:00;2.80;99.90
64855;DHT22;51321;50.428;8.378;2023-01-28T01:24:41;2.80;99.90
64855;DHT22;51321;50.428;8.378;2023-01-28T01:27:23;2.80;99.90
64855;DHT22;51321;50.428;8.378;2023-01-28T01:30:05;2.80;99.90
64855;DHT22;51321;50.428;8.378;2023-01-28T01:32:47;2.80;99.90
64855;DHT22;51321;50.428;8.378;2023-01-28T01:35:28;2.70;99.90
64855;DHT22;51321;50.428;8.378;2023-01-28T01:38:09;2.70;99.90
64855;DHT22;51321;50.428;8.378;2023-01-28T01:40:49;2.70;99.90
64855;DHT22;51321;50.428;8.378;2023-01-28T01:43:49;2.70;99.90
64855;DHT22;51321;50.428;8.378;2023-01-28T01:46:35;2.70;99.90
64855;DHT22;51321;50.428;8.378;2023-01-28T01:49:20;2.70;99.90
64855;DHT22;51321;50.428;8.378;2023-01-28T01:52:06;2.70;99.90
64855;DHT22;51321;50.428;8.378;2023-01-28T01:54:51;2.70;99.90
64855;DHT22;51321;50.428;8.378;2023-01-28T01:57:35;2.60;99.90
64855;DHT22;51321;50.428;8.378;2023-01-28T02:00:18;2.60;99.90
64855;DHT22;51321;50.428;8.378;2023-01-28T02:03:00;2.70;99.90
64855;DHT22;51321;50.428;8.378;2023-01-28T02:05:41;2.70;99.90
64855;DHT22;51321;50.428;8.378;2023-01-28T02:08:22;2.70;99.90
64855;DHT22;51321;50.428;8.378;2023-01-28T02:11:05;2.70;99.90
64855;DHT22;51321;50.428;8.378;2023-01-28T02:13:49;2.70;99.90
64855;DHT22;51321;50.428;8.378;2023-01-28T02:16:34;2.60;99.90
64855;DHT22;51321;50.428;8.378;2023-01-28T02:19:16;2.70;99.90
64855;DHT22;51321;50.428;8.378;2023-01-28T02:22:07;2.60;99.90
64855;DHT22;51321;50.428;8.378;2023-01-28T02:25:03;2.60;99.90
64855;DHT22;51321;50.428;8.378;2023-01-28T02:28:08;2.60;99.90
64855;DHT22;51321;50.428;8.378;2023-01-28T02:30:52;2.50;99.90
64855;DHT22;51321;50.428;8.378;2023-01-28T02:33:38;2.40;99.90
64855;DHT22;51321;50.428;8.378;2023-01-28T02:36:26;2.30;99.90
64855;DHT22;51321;50.428;8.378;2023-01-28T02:39:12;2.20;99.90
64855;DHT22;51321;50.428;8.378;2023-01-28T02:42:03;2.20;99.90
64855;DHT22;51321;50.428;8.378;2023-01-28T02:44:47;2.20;99.90
64855;DHT22;51321;50.428;8.378;2023-01-28T02:47:28;2.10;99.90
64855;DHT22;51321;50.428;8.378;2023-01-28T02:50:33;2.10;99.90
64855;DHT22;51321;50.428;8.378;2023-01-28T02:53:20;2.10;99.90
64855;DHT22;51321;50.428;8.378;2023-01-28T02:56:29;2.10;99.90
64855;DHT22;51321;50.428;8.378;2023-01-28T02:59:22;2.00;99.90
64855;DHT22;51321;50.428;8.378;2023-01-28T03:02:21;2.00;99.90
64855;DHT22;51321;50.428;8.378;2023-01-28T03:05:06;1.90;99.90
64855;DHT22;51321;50.428;8.378;2023-01-28T03:07:49;2.00;99.90
64855;DHT22;51321;50.428;8.378;2023-01-28T03:10:33;2.00;99.90
64855;DHT22;51321;50.428;8.378;2023-01-28T03:13:15;2.00;99.90
64855;DHT22;51321;50.428;8.378;2023-01-28T03:16:14;2.00;99.90
64855;DHT22;51321;50.428;8.378;2023-01-28T03:19:16;2.10;99.90
64855;DHT22;51321;50.428;8.378;2023-01-28T03:22:16;2.00;99.90
64855;DHT22;51321;50.428;8.378;2023-01-28T03:25:17;2.00;99.90
64855;DHT22;51321;50.428;8.378;2023-01-28T03:28:19;2.00;99.90
64855;DHT22;51321;50.428;8.378;2023-01-28T03:31:19;2.00;99.90
64855;DHT22;51321;50.428;8.378;2023-01-28T03:34:21;2.00;99.90
64855;DHT22;51321;50.428;8.378;2023-01-28T03:37:21;2.10;99.90
64855;DHT22;51321;50.428;8.378;2023-01-28T03:40:14;2.00;99.90
64855;DHT22;51321;50.428;8.378;2023-01-28T03:42:57;2.10;99.90
64855;DHT22;51321;50.428;8.378;2023-01-28T03:45:45;2.10;99.90
64855;DHT22;51321;50.428;8.378;2023-01-28T03:48:30;2.10;99.90
64855;DHT22;51321;50.428;8.378;2023-01-28T03:51:16;2.10;99.90
64855;DHT22;51321;50.428;8.378;2023-01-28T03:53:57;2.20;99.90
64855;DHT22;51321;50.428;8.378;2023-01-28T03:56:38;2.20;99.90
64855;DHT22;51321;50.428;8.378;2023-01-28T03:59:19;2.20;99.90
64855;DHT22;51321;50.428;8.378;2023-01-28T04:02:00;2.30;99.90
64855;DHT22;51321;50.428;8.378;2023-01-28T04:04:42;2.30;99.90
64855;DHT22;51321;50.428;8.378;2023-01-28T04:07:25;2.40;99.90
64855;DHT22;51321;50.428;8.378;2023-01-28T04:10:35;2.30;99.90
64855;DHT22;51321;50.428;8.378;2023-01-28T04:13:33;2.30;99.90
64855;DHT22;51321;50.428;8.378;2023-01-28T04:16:16;2.30;99.90
64855;DHT22;51321;50.428;8.378;2023-01-28T04:18:56;2.20;99.90
64855;DHT22;51321;50.428;8.378;2023-01-28T04:21:37;2.30;99.90
64855;DHT22;51321;50.428;8.378;2023-01-28T04:24:21;2.30;99.90
64855;DHT22;51321;50.428;8.378;2023-01-28T04:27:02;2.30;99.90
64855;DHT22;51321;50.428;8.378;2023-01-28T04:29:43;2.30;99.90
64855;DHT22;51321;50.428;8.378;2023-01-28T04:32:56;2.30;99.90
64855;DHT22;51321;50.428;8.378;2023-01-28T04:35:47;2.30;99.90
64855;DHT22;51321;50.428;8.378;2023-01-28T04:38:48;2.30;99.90
64855;DHT22;51321;50.428;8.378;2023-01-28T04:41:54;2.20;99.90
64855;DHT22;51321;50.428;8.378;2023-01-28T04:44:46;2.20;99.90
64855;DHT22;51321;50.428;8.378;2023-01-28T04:47:45;2.20;99.90
64855;DHT22;51321;50.428;8.378;2023-01-28T04:50:43;2.30;99.90
64855;DHT22;51321;50.428;8.378;2023-01-28T04:53:32;2.20;99.90
64855;DHT22;51321;50.428;8.378;2023-01-28T04:56:19;2.30;99.90
64855;DHT22;51321;50.428;8.378;2023-01-28T04:59:01;2.20;99.90
64855;DHT22;51321;50.428;8.378;2023-01-28T05:01:44;2.20;99.90
64855;DHT22;51321;50.428;8.378;2023-01-28T05:04:25;2.30;99.90
64855;DHT22;51321;50.428;8.378;2023-01-28T05:07:05;2.40;99.90
64855;DHT22;51321;50.428;8.378;2023-01-28T05:09:47;2.30;99.90
64855;DHT22;51321;50.428;8.378;2023-01-28T05:12:28;2.30;99.90
64855;DHT22;51321;50.428;8.378;2023-01-28T05:15:16;2.20;99.90
64855;DHT22;51321;50.428;8.378;2023-01-28T05:17:58;2.20;99.90
64855;DHT22;51321;50.428;8.378;2023-01-28T05:20:42;2.20;99.90
64855;DHT22;51321;50.428;8.378;2023-01-28T05:23:23;2.20;99.90
64855;DHT22;51321;50.428;8.378;2023-01-28T05:26:08;2.20;99.90
64855;DHT22;51321;50.428;8.378;2023-01-28T05:28:49;2.30;99.90
64855;DHT22;51321;50.428;8.378;2023-01-28T05:31:32;2.20;99.90
64855;DHT22;51321;50.428;8.378;2023-01-28T05:34:13;2.20;99.90
64855;DHT22;51321;50.428;8.378;2023-01-28T05:36:53;2.20;99.90
64855;DHT22;51321;50.428;8.378;2023-01-28T05:39:45;2.20;99.90
64855;DHT22;51321;50.428;8.378;2023-01-28T05:42:25;2.10;99.90
64855;DHT22;51321;50.428;8.378;2023-01-28T05:45:15;2.20;99.90
64855;DHT22;51321;50.428;8.378;2023-01-28T05:48:17;2.30;99.90
64855;DHT22;51321;50.428;8.378;2023-01-28T05:51:13;2.20;99.90
64855;DHT22;51321;50.428;8.378;2023-01-28T05:53:58;2.30;99.90
64855;DHT22;51321;50.428;8.378;2023-01-28T05:56:38;2.20;99.90
64855;DHT22;51321;50.428;8.378;2023-01-28T05:59:19;2.20;99.90
64855;DHT22;51321;50.428;8.378;2023-01-28T06:02:03;2.20;99.90
64855;DHT22;51321;50.428;8.378;2023-01-28T06:04:45;2.20;99.90
64855;DHT22;51321;50.428;8.378;2023-01-28T06:07:26;2.20;99.90
64855;DHT22;51321;50.428;8.378;2023-01-28T06:10:08;2.20;99.90
64855;DHT22;51321;50.428;8.378;2023-01-28T06:12:49;2.20;99.90
64855;DHT22;51321;50.428;8.378;2023-01-28T06:15:48;2.20;99.90
64855;DHT22;51321;50.428;8.378;2023-01-28T06:18:48;2.20;99.90
64855;DHT22;51321;50.428;8.378;2023-01-28T06:21:30;2.20;99.90
64855;DHT22;51321;50.428;8.378;2023-01-28T06:24:11;2.20;99.90
64855;DHT22;51321;50.428;8.378;2023-01-28T06:26:54;2.20;99.90
64855;DHT22;51321;50.428;8.378;2023-01-28T06:29:34;2.10;99.90
64855;DHT22;51321;50.428;8.378;2023-01-28T06:32:15;2.10;99.90
64855;DHT22;51321;50.428;8.378;2023-01-28T06:34:55;2.10;99.90
64855;DHT22;51321;50.428;8.378;2023-01-28T06:37:39;2.10;99.90
64855;DHT22;51321;50.428;8.378;2023-01-28T06:40:21;2.10;99.90
64855;DHT22;51321;50.428;8.378;2023-01-28T06:43:03;2.20;99.90
64855;DHT22;51321;50.428;8.378;2023-01-28T06:45:44;2.20;99.90
64855;DHT22;51321;50.428;8.378;2023-01-28T06:48:27;2.10;99.90
64855;DHT22;51321;50.428;8.378;2023-01-28T06:51:08;2.20;99.90
64855;DHT22;51321;50.428;8.378;2023-01-28T06:53:50;2.20;99.90
64855;DHT22;51321;50.428;8.378;2023-01-28T06:56:31;2.10;99.90
64855;DHT22;51321;50.428;8.378;2023-01-28T06:59:12;2.10;99.90
64855;DHT22;51321;50.428;8.378;2023-01-28T07:01:52;2.10;99.90
64855;DHT22;51321;50.428;8.378;2023-01-28T07:04:34;2.10;99.90
64855;DHT22;51321;50.428;8.378;2023-01-28T07:07:15;2.10;99.90
64855;DHT22;51321;50.428;8.378;2023-01-28T07:09:58;2.10;99.90
64855;DHT22;51321;50.428;8.378;2023-01-28T07:12:39;2.10;99.90
64855;DHT22;51321;50.428;8.378;2023-01-28T07:15:19;2.10;99.90
64855;DHT22;51321;50.428;8.378;2023-01-28T07:18:00;2.10;99.90
64855;DHT22;51321;50.428;8.378;2023-01-28T07:20:41;2.10;99.90
64855;DHT22;51321;50.428;8.378;2023-01-28T07:23:21;2.10;99.90
64855;DHT22;51321;50.428;8.378;2023-01-28T07:26:04;2.10;99.90
64855;DHT22;51321;50.428;8.378;2023-01-28T07:28:45;2.10;99.90
64855;DHT22;51321;50.428;8.378;2023-01-28T07:31:26;2.10;99.90
64855;DHT22;51321;50.428;8.378;2023-01-28T07:34:08;2.10;99.90
64855;DHT22;51321;50.428;8.378;2023-01-28T07:36:49;2.00;99.90
64855;DHT22;51321;50.428;8.378;2023-01-28T07:39:29;2.10;99.90
64855;DHT22;51321;50.428;8.378;2023-01-28T07:42:12;2.20;99.90
64855;DHT22;51321;50.428;8.378;2023-01-28T07:44:58;2.20;99.90
64855;DHT22;51321;50.428;8.378;2023-01-28T07:47:40;2.10;99.90
64855;DHT22;51321;50.428;8.378;2023-01-28T07:50:21;2.20;99.90
64855;DHT22;51321;50.428;8.378;2023-01-28T07:53:03;2.20;99.90
64855;DHT22;51321;50.428;8.378;2023-01-28T07:55:43;2.20;99.90
64855;DHT22;51321;50.428;8.378;2023-01-28T07:58:25;2.30;99.90
64855;DHT22;51321;50.428;8.378;2023-01-28T08:01:06;2.30;99.90
64855;DHT22;51321;50.428;8.378;2023-01-28T08:03:46;2.20;99.90
64855;DHT22;51321;50.428;8.378;2023-01-28T08:06:28;2.10;99.90
64855;DHT22;51321;50.428;8.378;2023-01-28T08:09:08;2.10;99.90
64855;DHT22;51321;50.428;8.378;2023-01-28T08:11:49;2.10;99.90
64855;DHT22;51321;50.428;8.378;2023-01-28T08:14:32;2.10;99.90
64855;DHT22;51321;50.428;8.378;2023-01-28T08:17:13;2.20;99.90
64855;DHT22;51321;50.428;8.378;2023-01-28T08:19:53;2.20;99.90
64855;DHT22;51321;50.428;8.378;2023-01-28T08:22:34;2.30;99.90
64855;DHT22;51321;50.428;8.378;2023-01-28T08:25:15;2.30;99.90
64855;DHT22;51321;50.428;8.378;2023-01-28T08:27:55;2.20;99.90
64855;DHT22;51321;50.428;8.378;2023-01-28T08:30:37;2.20;99.90
64855;DHT22;51321;50.428;8.378;2023-01-28T08:33:19;2.30;99.90
64855;DHT22;51321;50.428;8.378;2023-01-28T08:36:01;2.20;99.90
64855;DHT22;51321;50.428;8.378;2023-01-28T08:38:42;2.20;99.90
64855;DHT22;51321;50.428;8.378;2023-01-28T08:41:23;2.10;99.90
64855;DHT22;51321;50.428;8.378;2023-01-28T08:44:04;2.20;99.90
64855;DHT22;51321;50.428;8.378;2023-01-28T08:46:46;2.10;99.90
64855;DHT22;51321;50.428;8.378;2023-01-28T08:49:26;2.10;99.90
64855;DHT22;51321;50.428;8.378;2023-01-28T08:52:07;2.10;99.90
64855;DHT22;51321;50.428;8.378;2023-01-28T08:54:47;2.20;99.90
64855;DHT22;51321;50.428;8.378;2023-01-28T08:57:28;2.10;99.90
64855;DHT22;51321;50.428;8.378;2023-01-28T09:00:10;2.20;99.90
64855;DHT22;51321;50.428;8.378;2023-01-28T09:02:52;2.20;99.90
64855;DHT22;51321;50.428;8.378;2023-01-28T09:05:34;2.20;99.90
64855;DHT22;51321;50.428;8.378;2023-01-28T09:08:15;2.20;99.90
64855;DHT22;51321;50.428;8.378;2023-01-28T09:10:58;2.30;99.90
64855;DHT22;51321;50.428;8.378;2023-01-28T09:13:39;2.30;99.90
64855;DHT22;51321;50.428;8.378;2023-01-28T09:16:20;2.20;99.90
64855;DHT22;51321;50.428;8.378;2023-01-28T09:19:02;2.20;99.90
64855;DHT22;51321;50.428;8.378;2023-01-28T09:21:43;2.30;99.90
64855;DHT22;51321;50.428;8.378;2023-01-28T09:24:23;2.20;99.90
64855;DHT22;51321;50.428;8.378;2023-01-28T09:27:04;2.20;99.90
64855;DHT22;51321;50.428;8.378;2023-01-28T09:29:45;2.10;99.90
64855;DHT22;51321;50.428;8.378;2023-01-28T09:32:26;2.10;99.90
64855;DHT22;51321;50.428;8.378;2023-01-28T09:35:08;2.10;99.90
64855;DHT22;51321;50.428;8.378;2023-01-28T09:37:49;2.20;99.90
64855;DHT22;51321;50.428;8.378;2023-01-28T09:40:35;2.30;99.90
64855;DHT22;51321;50.428;8.378;2023-01-28T09:43:30;2.40;99.90
64855;DHT22;51321;50.428;8.378;2023-01-28T09:46:14;2.40;99.90
64855;DHT22;51321;50.428;8.378;2023-01-28T09:48:57;2.30;99.90
64855;DHT22;51321;50.428;8.378;2023-01-28T09:51:47;2.30;99.90
64855;DHT22;51321;50.428;8.378;2023-01-28T09:54:42;2.40;99.90
64855;DHT22;51321;50.428;8.378;2023-01-28T09:57:26;2.50;99.90
64855;DHT22;51321;50.428;8.378;2023-01-28T10:00:15;2.60;99.90
64855;DHT22;51321;50.428;8.378;2023-01-28T10:03:35;2.50;99.90
64855;DHT22;51321;50.428;8.378;2023-01-28T10:06:24;2.40;99.90
64855;DHT22;51321;50.428;8.378;2023-01-28T10:09:17;2.40;99.90
64855;DHT22;51321;50.428;8.378;2023-01-28T10:12:07;2.50;99.90
64855;DHT22;51321;50.428;8.378;2023-01-28T10:15:03;2.60;99.90
64855;DHT22;51321;50.428;8.378;2023-01-28T10:17:51;2.60;99.90
64855;DHT22;51321;50.428;8.378;2023-01-28T10:20:36;2.60;99.90
64855;DHT22;51321;50.428;8.378;2023-01-28T10:23:23;2.50;99.90
64855;DHT22;51321;50.428;8.378;2023-01-28T10:26:14;2.50;99.90
64855;DHT22;51321;50.428;8.378;2023-01-28T10:29:04;2.40;99.90
64855;DHT22;51321;50.428;8.378;2023-01-28T10:31:52;2.50;99.90
64855;DHT22;51321;50.428;8.378;2023-01-28T10:34:35;2.40;99.90
64855;DHT22;51321;50.428;8.378;2023-01-28T10:37:16;2.40;99.90
64855;DHT22;51321;50.428;8.378;2023-01-28T10:39:58;2.40;99.90
64855;DHT22;51321;50.428;8.378;2023-01-28T10:42:41;2.50;99.90
64855;DHT22;51321;50.428;8.378;2023-01-28T10:45:24;2.50;99.90
64855;DHT22;51321;50.428;8.378;2023-01-28T10:48:11;2.40;99.90
64855;DHT22;51321;50.428;8.378;2023-01-28T10:50:54;2.40;99.90
64855;DHT22;51321;50.428;8.378;2023-01-28T10:53:39;2.40;99.90
64855;DHT22;51321;50.428;8.378;2023-01-28T10:56:24;2.50;99.90
64855;DHT22;51321;50.428;8.378;2023-01-28T10:59:19;2.60;99.90
64855;DHT22;51321;50.428;8.378;2023-01-28T11:02:01;2.50;99.90
64855;DHT22;51321;50.428;8.378;2023-01-28T11:04:44;2.40;99.90
64855;DHT22;51321;50.428;8.378;2023-01-28T11:07:24;2.50;99.90
64855;DHT22;51321;50.428;8.378;2023-01-28T11:10:23;2.50;99.90
64855;DHT22;51321;50.428;8.378;2023-01-28T11:13:12;2.50;99.90
64855;DHT22;51321;50.428;8.378;2023-01-28T11:15:59;2.40;99.90
64855;DHT22;51321;50.428;8.378;2023-01-28T11:18:47;2.30;99.90
64855;DHT22;51321;50.428;8.378;2023-01-28T11:21:31;2.20;99.90
64855;DHT22;51321;50.428;8.378;2023-01-28T11:24:14;2.20;99.90
64855;DHT22;51321;50.428;8.378;2023-01-28T11:27:10;2.30;99.90
64855;DHT22;51321;50.428;8.378;2023-01-28T11:29:56;2.30;99.90
64855;DHT22;51321;50.428;8.378;2023-01-28T11:32:42;2.30;99.90
64855;DHT22;51321;50.428;8.378;2023-01-28T11:35:27;2.30;99.90
64855;DHT22;51321;50.428;8.378;2023-01-28T11:38:16;2.40;99.90
64855;DHT22;51321;50.428;8.378;2023-01-28T11:40:58;2.50;99.90
64855;DHT22;51321;50.428;8.378;2023-01-28T11:43:39;2.60;99.90
64855;DHT22;51321;50.428;8.378;2023-01-28T11:46:37;2.80;99.90
64855;DHT22;51321;50.428;8.378;2023-01-28T11:49:29;2.70;99.90
64855;DHT22;51321;50.428;8.378;2023-01-28T11:52:21;2.60;99.90
64855;DHT22;51321;50.428;8.378;2023-01-28T11:55:20;2.40;99.90
64855;DHT22;51321;50.428;8.378;2023-01-28T11:58:11;2.30;99.90
64855;DHT22;51321;50.428;8.378;2023-01-28T12:01:01;2.30;99.90
64855;DHT22;51321;50.428;8.378;2023-01-28T12:07:14;2.40;99.90
64855;DHT22;51321;50.428;8.378;2023-01-28T12:10:02;2.20;99.90
64855;DHT22;51321;50.428;8.378;2023-01-28T12:13:06;2.20;99.90
64855;DHT22;51321;50.428;8.378;2023-01-28T12:16:04;2.30;99.90
64855;DHT22;51321;50.428;8.378;2023-01-28T12:22:12;2.50;99.90
64855;DHT22;51321;50.428;8.378;2023-01-28T12:25:10;2.60;99.90
64855;DHT22;51321;50.428;8.378;2023-01-28T12:28:00;2.60;99.90
64855;DHT22;51321;50.428;8.378;2023-01-28T12:30:56;2.50;99.90
64855;DHT22;51321;50.428;8.378;2023-01-28T12:33:54;2.50;99.90
64855;DHT22;51321;50.428;8.378;2023-01-28T12:36:46;2.50;99.90
64855;DHT22;51321;50.428;8.378;2023-01-28T12:39:40;2.50;99.90
64855;DHT22;51321;50.428;8.378;2023-01-28T12:42:31;2.50;99.90
64855;DHT22;51321;50.428;8.378;2023-01-28T12:45:18;2.60;99.90
64855;DHT22;51321;50.428;8.378;2023-01-28T12:48:07;2.60;99.90
64855;DHT22;51321;50.428;8.378;2023-01-28T12:50:53;2.30;99.90
64855;DHT22;51321;50.428;8.378;2023-01-28T12:53:37;2.30;99.90
64855;DHT22;51321;50.428;8.378;2023-01-28T12:56:23;2.30;99.90
64855;DHT22;51321;50.428;8.378;2023-01-28T12:59:10;2.40;99.90
64855;DHT22;51321;50.428;8.378;2023-01-28T13:01:56;2.40;99.90
64855;DHT22;51321;50.428;8.378;2023-01-28T13:04:43;2.30;99.90
64855;DHT22;51321;50.428;8.378;2023-01-28T13:07:28;2.30;99.90
64855;DHT22;51321;50.428;8.378;2023-01-28T13:10:17;2.20;99.90
64855;DHT22;51321;50.428;8.378;2023-01-28T13:13:00;2.20;99.90
64855;DHT22;51321;50.428;8.378;2023-01-28T13:15:42;2.30;99.90
64855;DHT22;51321;50.428;8.378;2023-01-28T13:18:32;2.30;99.90
64855;DHT22;51321;50.428;8.378;2023-01-28T13:21:15;2.40;99.90
64855;DHT22;51321;50.428;8.378;2023-01-28T13:24:17;2.40;99.90
64855;DHT22;51321;50.428;8.378;2023-01-28T13:27:10;2.40;99.90
64855;DHT22;51321;50.428;8.378;2023-01-28T13:30:05;2.50;99.90
64855;DHT22;51321;50.428;8.378;2023-01-28T13:33:03;2.50;99.90
64855;DHT22;51321;50.428;8.378;2023-01-28T13:35:49;2.40;99.90
64855;DHT22;51321;50.428;8.378;2023-01-28T13:38:32;2.30;99.90
64855;DHT22;51321;50.428;8.378;2023-01-28T13:41:13;2.30;99.90
64855;DHT22;51321;50.428;8.378;2023-01-28T13:43:54;2.20;99.90
64855;DHT22;51321;50.428;8.378;2023-01-28T13:46:38;2.20;99.90
64855;DHT22;51321;50.428;8.378;2023-01-28T13:49:25;2.20;99.90
64855;DHT22;51321;50.428;8.378;2023-01-28T13:52:13;2.20;99.90
64855;DHT22;51321;50.428;8.378;2023-01-28T13:54:59;2.30;99.90
64855;DHT22;51321;50.428;8.378;2023-01-28T13:58:17;2.20;99.90
64855;DHT22;51321;50.428;8.378;2023-01-28T14:01:27;2.20;99.90
64855;DHT22;51321;50.428;8.378;2023-01-28T14:04:38;2.20;99.90
64855;DHT22;51321;50.428;8.378;2023-01-28T14:07:41;2.20;99.90
64855;DHT22;51321;50.428;8.378;2023-01-28T14:10:32;2.20;99.90
64855;DHT22;51321;50.428;8.378;2023-01-28T14:13:37;2.30;99.90
64855;DHT22;51321;50.428;8.378;2023-01-28T14:16:33;2.20;99.90
64855;DHT22;51321;50.428;8.378;2023-01-28T14:19:21;2.10;99.90
64855;DHT22;51321;50.428;8.378;2023-01-28T14:22:08;2.20;99.90
64855;DHT22;51321;50.428;8.378;2023-01-28T14:24:49;2.20;99.90
64855;DHT22;51321;50.428;8.378;2023-01-28T14:27:34;2.30;99.90
64855;DHT22;51321;50.428;8.378;2023-01-28T14:30:21;2.50;99.90
64855;DHT22;51321;50.428;8.378;2023-01-28T14:33:08;2.50;99.90
64855;DHT22;51321;50.428;8.378;2023-01-28T14:35:51;2.60;99.90
64855;DHT22;51321;50.428;8.378;2023-01-28T14:38:37;2.70;99.90
64855;DHT22;51321;50.428;8.378;2023-01-28T14:41:22;2.60;99.90
64855;DHT22;51321;50.428;8.378;2023-01-28T14:44:07;2.60;99.90
64855;DHT22;51321;50.428;8.378;2023-01-28T14:46:54;2.50;99.90
64855;DHT22;51321;50.428;8.378;2023-01-28T14:49:44;2.40;99.90
64855;DHT22;51321;50.428;8.378;2023-01-28T14:52:51;2.40;99.90
64855;DHT22;51321;50.428;8.378;2023-01-28T14:55:41;2.40;99.90
64855;DHT22;51321;50.428;8.378;2023-01-28T14:58:29;2.30;99.90
64855;DHT22;51321;50.428;8.378;2023-01-28T15:01:20;2.10;99.90
64855;DHT22;51321;50.428;8.378;2023-01-28T15:04:01;2.10;99.90
64855;DHT22;51321;50.428;8.378;2023-01-28T15:06:41;2.20;99.90
64855;DHT22;51321;50.428;8.378;2023-01-28T15:09:22;2.20;99.90
64855;DHT22;51321;50.428;8.378;2023-01-28T15:12:06;2.10;99.90
64855;DHT22;51321;50.428;8.378;2023-01-28T15:14:47;2.10;99.90
64855;DHT22;51321;50.428;8.378;2023-01-28T15:17:27;2.00;99.90
64855;DHT22;51321;50.428;8.378;2023-01-28T15:20:15;2.00;99.90
64855;DHT22;51321;50.428;8.378;2023-01-28T15:22:57;1.90;99.90
64855;DHT22;51321;50.428;8.378;2023-01-28T15:25:40;1.90;99.90
64855;DHT22;51321;50.428;8.378;2023-01-28T15:28:26;1.80;99.90
64855;DHT22;51321;50.428;8.378;2023-01-28T15:31:18;1.90;99.90
64855;DHT22;51321;50.428;8.378;2023-01-28T15:34:01;1.80;99.90
64855;DHT22;51321;50.428;8.378;2023-01-28T15:36:42;1.80;99.90
64855;DHT22;51321;50.428;8.378;2023-01-28T15:39:24;1.70;99.90
64855;DHT22;51321;50.428;8.378;2023-01-28T15:42:06;1.70;99.90
64855;DHT22;51321;50.428;8.378;2023-01-28T15:44:48;1.70;99.90
64855;DHT22;51321;50.428;8.378;2023-01-28T15:47:32;1.70;99.90
64855;DHT22;51321;50.428;8.378;2023-01-28T15:50:17;1.60;99.90
64855;DHT22;51321;50.428;8.378;2023-01-28T15:52:59;1.60;99.90
64855;DHT22;51321;50.428;8.378;2023-01-28T15:55:41;1.60;99.90
64855;DHT22;51321;50.428;8.378;2023-01-28T15:58:29;1.70;99.90
64855;DHT22;51321;50.428;8.378;2023-01-28T16:01:15;1.70;99.90
64855;DHT22;51321;50.428;8.378;2023-01-28T16:04:01;1.70;99.90
64855;DHT22;51321;50.428;8.378;2023-01-28T16:06:42;1.70;99.90
64855;DHT22;51321;50.428;8.378;2023-01-28T16:09:27;1.90;99.90
64855;DHT22;51321;50.428;8.378;2023-01-28T16:12:11;1.80;99.90
64855;DHT22;51321;50.428;8.378;2023-01-28T16:14:54;1.80;99.90
64855;DHT22;51321;50.428;8.378;2023-01-28T16:17:38;1.80;99.90
64855;DHT22;51321;50.428;8.378;2023-01-28T16:20:22;1.70;99.90
64855;DHT22;51321;50.428;8.378;2023-01-28T16:23:20;1.70;99.90
64855;DHT22;51321;50.428;8.378;2023-01-28T16:26:04;1.70;99.90
64855;DHT22;51321;50.428;8.378;2023-01-28T16:28:45;1.60;99.90
64855;DHT22;51321;50.428;8.378;2023-01-28T16:31:25;1.70;99.90
64855;DHT22;51321;50.428;8.378;2023-01-28T16:34:09;1.70;99.90
64855;DHT22;51321;50.428;8.378;2023-01-28T16:36:50;1.80;99.90
64855;DHT22;51321;50.428;8.378;2023-01-28T16:39:30;1.70;99.90
64855;DHT22;51321;50.428;8.378;2023-01-28T16:42:11;1.70;99.90
64855;DHT22;51321;50.428;8.378;2023-01-28T16:44:52;1.60;99.90
64855;DHT22;51321;50.428;8.378;2023-01-28T16:47:33;1.50;99.90
64855;DHT22;51321;50.428;8.378;2023-01-28T16:50:15;1.60;99.90
64855;DHT22;51321;50.428;8.378;2023-01-28T16:52:56;1.50;99.90
64855;DHT22;51321;50.428;8.378;2023-01-28T16:55:37;1.50;99.90
64855;DHT22;51321;50.428;8.378;2023-01-28T16:58:22;1.50;99.90
64855;DHT22;51321;50.428;8.378;2023-01-28T17:01:04;1.60;99.90
64855;DHT22;51321;50.428;8.378;2023-01-28T17:03:44;1.60;99.90
64855;DHT22;51321;50.428;8.378;2023-01-28T17:06:26;1.70;99.90
64855;DHT22;51321;50.428;8.378;2023-01-28T17:09:08;1.70;99.90
64855;DHT22;51321;50.428;8.378;2023-01-28T17:11:49;1.70;99.90
64855;DHT22;51321;50.428;8.378;2023-01-28T17:14:30;1.60;99.90
64855;DHT22;51321;50.428;8.378;2023-01-28T17:17:11;1.60;99.90
64855;DHT22;51321;50.428;8.378;2023-01-28T17:19:52;1.50;99.90
64855;DHT22;51321;50.428;8.378;2023-01-28T17:22:34;1.40;99.90
64855;DHT22;51321;50.428;8.378;2023-01-28T17:25:15;1.40;99.90
64855;DHT22;51321;50.428;8.378;2023-01-28T17:27:56;1.40;99.90
64855;DHT22;51321;50.428;8.378;2023-01-28T17:30:38;1.40;99.90
64855;DHT22;51321;50.428;8.378;2023-01-28T17:33:22;1.40;99.90
64855;DHT22;51321;50.428;8.378;2023-01-28T17:36:03;1.30;99.90
64855;DHT22;51321;50.428;8.378;2023-01-28T17:38:45;1.30;99.90
64855;DHT22;51321;50.428;8.378;2023-01-28T17:41:26;1.30;99.90
64855;DHT22;51321;50.428;8.378;2023-01-28T17:44:10;1.30;99.90
64855;DHT22;51321;50.428;8.378;2023-01-28T17:46:53;1.30;99.90
64855;DHT22;51321;50.428;8.378;2023-01-28T17:49:33;1.30;99.90